ホワイトホース の空港の天気 - METARとTAF

ホワイトホース国際空港 ( CYXY / YXY ) - カナダ ユーコン準州ホワイトホース
飛行場実況気象(Metar)
観測時間10/17 20:00 PDT (10/18 03:00 UTC)
風向・風速南南東 5m/s
視程10km以上
天気現象
少しの雲 雲底高度 2130m
全天の8割程度の雲 雲底高度 4570m
気温6℃
湿度70%
気圧1011.4hPa
METARCYXY 180300Z 15009KT 15SM FEW070 BKN150 06/01 A2978 RMK AC2AC3 SLP114
過去の天気等 Google飛行場航空写真 Wunderground天気予報

過去48時間のMETAR

飛行場予報(TAF)
発表時間: 10/17 16:38 PDT (10/17 23:38 UTC)
予報対象時間: 17日17時 PDT ~ 18日5時 PDT
風向・風速南南東 5m/s
視程10km以上
少しの雲 雲底高度 1220m
全天の8割程度の雲 雲底高度 2440m
17日21時 PDT ~ 17日23時 PDT に徐々に
少しの雲 雲底高度 1220m
全天の4割程度の雲 雲底高度 2440m
TAF CYXY 172338Z 1800/1812 16010KT P6SM FEW040 BKN080
BECMG 1804/1806 FEW040 SCT080 RMK NXT FCST BY 180600Z